sensor_id;sensor_type;location;lat;lon;timestamp;P1;durP1;ratioP1;P2;durP2;ratioP2
16407;SDS011;8313;49.894;8.084;2022-12-07T00:03:48;8.10;;;4.90;;
16407;SDS011;8313;49.894;8.084;2022-12-07T00:06:15;7.03;;;4.33;;
16407;SDS011;8313;49.894;8.084;2022-12-07T00:08:42;6.83;;;4.40;;
16407;SDS011;8313;49.894;8.084;2022-12-07T00:11:08;5.10;;;4.43;;
16407;SDS011;8313;49.894;8.084;2022-12-07T00:13:45;7.17;;;4.07;;
16407;SDS011;8313;49.894;8.084;2022-12-07T00:16:15;7.13;;;4.67;;
16407;SDS011;8313;49.894;8.084;2022-12-07T00:18:43;4.40;;;3.43;;
16407;SDS011;8313;49.894;8.084;2022-12-07T00:21:10;11.57;;;5.10;;
16407;SDS011;8313;49.894;8.084;2022-12-07T00:23:36;9.20;;;4.90;;
16407;SDS011;8313;49.894;8.084;2022-12-07T00:26:07;8.23;;;4.10;;
16407;SDS011;8313;49.894;8.084;2022-12-07T00:28:37;11.13;;;4.37;;
16407;SDS011;8313;49.894;8.084;2022-12-07T00:31:04;9.57;;;4.17;;
16407;SDS011;8313;49.894;8.084;2022-12-07T00:33:32;8.63;;;4.43;;
16407;SDS011;8313;49.894;8.084;2022-12-07T00:35:59;7.60;;;4.53;;
16407;SDS011;8313;49.894;8.084;2022-12-07T00:38:27;8.10;;;4.50;;
16407;SDS011;8313;49.894;8.084;2022-12-07T00:40:55;8.37;;;4.90;;
16407;SDS011;8313;49.894;8.084;2022-12-07T00:43:22;5.87;;;3.83;;
16407;SDS011;8313;49.894;8.084;2022-12-07T00:45:48;6.10;;;3.47;;
16407;SDS011;8313;49.894;8.084;2022-12-07T00:48:13;10.27;;;5.10;;
16407;SDS011;8313;49.894;8.084;2022-12-07T00:50:39;9.77;;;5.90;;
16407;SDS011;8313;49.894;8.084;2022-12-07T00:53:04;8.47;;;4.83;;
16407;SDS011;8313;49.894;8.084;2022-12-07T00:55:34;7.03;;;4.20;;
16407;SDS011;8313;49.894;8.084;2022-12-07T00:58:00;7.90;;;4.47;;
16407;SDS011;8313;49.894;8.084;2022-12-07T01:00:26;8.27;;;4.50;;
16407;SDS011;8313;49.894;8.084;2022-12-07T01:02:51;7.13;;;4.33;;
16407;SDS011;8313;49.894;8.084;2022-12-07T01:05:17;8.37;;;4.07;;
16407;SDS011;8313;49.894;8.084;2022-12-07T01:07:43;9.33;;;4.97;;
16407;SDS011;8313;49.894;8.084;2022-12-07T01:10:09;6.30;;;3.83;;
16407;SDS011;8313;49.894;8.084;2022-12-07T01:12:35;6.73;;;4.23;;
16407;SDS011;8313;49.894;8.084;2022-12-07T01:15:01;8.47;;;4.20;;
16407;SDS011;8313;49.894;8.084;2022-12-07T01:17:27;7.03;;;4.07;;
16407;SDS011;8313;49.894;8.084;2022-12-07T01:19:53;7.13;;;4.17;;
16407;SDS011;8313;49.894;8.084;2022-12-07T01:22:19;4.20;;;3.03;;
16407;SDS011;8313;49.894;8.084;2022-12-07T01:24:45;10.73;;;4.37;;
16407;SDS011;8313;49.894;8.084;2022-12-07T01:27:11;8.33;;;5.30;;
16407;SDS011;8313;49.894;8.084;2022-12-07T01:29:38;4.67;;;3.90;;
16407;SDS011;8313;49.894;8.084;2022-12-07T01:32:04;6.00;;;4.07;;
16407;SDS011;8313;49.894;8.084;2022-12-07T01:34:29;6.10;;;4.30;;
16407;SDS011;8313;49.894;8.084;2022-12-07T01:36:55;6.90;;;3.50;;
16407;SDS011;8313;49.894;8.084;2022-12-07T01:39:21;4.73;;;3.87;;
16407;SDS011;8313;49.894;8.084;2022-12-07T01:41:47;7.80;;;4.40;;
16407;SDS011;8313;49.894;8.084;2022-12-07T01:46:50;7.90;;;3.77;;
16407;SDS011;8313;49.894;8.084;2022-12-07T01:49:18;7.10;;;4.00;;
16407;SDS011;8313;49.894;8.084;2022-12-07T01:52:10;7.67;;;3.80;;
16407;SDS011;8313;49.894;8.084;2022-12-07T01:54:40;5.20;;;3.40;;
16407;SDS011;8313;49.894;8.084;2022-12-07T01:57:08;6.13;;;4.40;;
16407;SDS011;8313;49.894;8.084;2022-12-07T01:59:34;5.23;;;3.73;;
16407;SDS011;8313;49.894;8.084;2022-12-07T02:02:00;4.53;;;3.10;;
16407;SDS011;8313;49.894;8.084;2022-12-07T02:04:28;6.17;;;4.17;;
16407;SDS011;8313;49.894;8.084;2022-12-07T02:06:55;10.53;;;4.63;;
16407;SDS011;8313;49.894;8.084;2022-12-07T02:09:21;6.60;;;3.93;;
16407;SDS011;8313;49.894;8.084;2022-12-07T02:11:47;4.57;;;3.10;;
16407;SDS011;8313;49.894;8.084;2022-12-07T02:14:13;5.93;;;2.83;;
16407;SDS011;8313;49.894;8.084;2022-12-07T02:16:44;6.83;;;4.50;;
16407;SDS011;8313;49.894;8.084;2022-12-07T02:22:13;6.90;;;3.63;;
16407;SDS011;8313;49.894;8.084;2022-12-07T02:24:54;5.40;;;4.30;;
16407;SDS011;8313;49.894;8.084;2022-12-07T02:27:45;7.30;;;3.17;;
16407;SDS011;8313;49.894;8.084;2022-12-07T02:30:18;7.17;;;3.90;;
16407;SDS011;8313;49.894;8.084;2022-12-07T02:35:25;7.47;;;3.00;;
16407;SDS011;8313;49.894;8.084;2022-12-07T02:38:18;7.63;;;4.17;;
16407;SDS011;8313;49.894;8.084;2022-12-07T02:40:57;4.77;;;2.60;;
16407;SDS011;8313;49.894;8.084;2022-12-07T02:43:34;6.70;;;4.20;;
16407;SDS011;8313;49.894;8.084;2022-12-07T02:46:09;4.60;;;3.40;;
16407;SDS011;8313;49.894;8.084;2022-12-07T02:48:39;6.83;;;4.17;;
16407;SDS011;8313;49.894;8.084;2022-12-07T02:51:06;5.67;;;3.30;;
16407;SDS011;8313;49.894;8.084;2022-12-07T02:56:01;6.77;;;3.73;;
16407;SDS011;8313;49.894;8.084;2022-12-07T03:03:56;6.07;;;3.23;;
16407;SDS011;8313;49.894;8.084;2022-12-07T03:06:32;4.00;;;3.07;;
16407;SDS011;8313;49.894;8.084;2022-12-07T03:09:15;7.37;;;3.00;;
16407;SDS011;8313;49.894;8.084;2022-12-07T03:12:02;5.77;;;3.07;;
16407;SDS011;8313;49.894;8.084;2022-12-07T03:14:38;7.00;;;3.23;;
16407;SDS011;8313;49.894;8.084;2022-12-07T03:17:13;4.40;;;2.97;;
16407;SDS011;8313;49.894;8.084;2022-12-07T03:19:44;4.43;;;3.63;;
16407;SDS011;8313;49.894;8.084;2022-12-07T03:22:12;3.90;;;3.00;;
16407;SDS011;8313;49.894;8.084;2022-12-07T03:24:43;6.27;;;3.03;;
16407;SDS011;8313;49.894;8.084;2022-12-07T03:27:24;5.93;;;3.00;;
16407;SDS011;8313;49.894;8.084;2022-12-07T03:29:54;7.00;;;3.73;;
16407;SDS011;8313;49.894;8.084;2022-12-07T03:32:26;9.93;;;4.40;;
16407;SDS011;8313;49.894;8.084;2022-12-07T03:37:31;8.17;;;4.57;;
16407;SDS011;8313;49.894;8.084;2022-12-07T03:40:13;5.27;;;3.37;;
16407;SDS011;8313;49.894;8.084;2022-12-07T03:42:43;4.43;;;3.00;;
16407;SDS011;8313;49.894;8.084;2022-12-07T03:45:09;5.73;;;3.30;;
16407;SDS011;8313;49.894;8.084;2022-12-07T03:50:13;7.90;;;3.70;;
16407;SDS011;8313;49.894;8.084;2022-12-07T03:52:48;6.07;;;3.70;;
16407;SDS011;8313;49.894;8.084;2022-12-07T03:55:27;7.40;;;3.90;;
16407;SDS011;8313;49.894;8.084;2022-12-07T03:57:58;5.33;;;3.33;;
16407;SDS011;8313;49.894;8.084;2022-12-07T04:00:27;8.57;;;4.00;;
16407;SDS011;8313;49.894;8.084;2022-12-07T04:02:53;8.77;;;4.40;;
16407;SDS011;8313;49.894;8.084;2022-12-07T04:05:19;8.07;;;4.47;;
16407;SDS011;8313;49.894;8.084;2022-12-07T04:07:45;5.87;;;4.30;;
16407;SDS011;8313;49.894;8.084;2022-12-07T04:10:11;8.10;;;4.00;;
16407;SDS011;8313;49.894;8.084;2022-12-07T04:12:37;6.90;;;3.73;;
16407;SDS011;8313;49.894;8.084;2022-12-07T04:15:03;5.83;;;3.70;;
16407;SDS011;8313;49.894;8.084;2022-12-07T04:17:29;7.57;;;4.10;;
16407;SDS011;8313;49.894;8.084;2022-12-07T04:19:54;7.27;;;4.30;;
16407;SDS011;8313;49.894;8.084;2022-12-07T04:22:20;7.73;;;4.47;;
16407;SDS011;8313;49.894;8.084;2022-12-07T04:24:46;8.50;;;4.80;;
16407;SDS011;8313;49.894;8.084;2022-12-07T04:27:11;6.40;;;4.40;;
16407;SDS011;8313;49.894;8.084;2022-12-07T04:29:37;10.47;;;5.40;;
16407;SDS011;8313;49.894;8.084;2022-12-07T04:32:03;8.97;;;4.70;;
16407;SDS011;8313;49.894;8.084;2022-12-07T04:34:28;12.60;;;5.80;;
16407;SDS011;8313;49.894;8.084;2022-12-07T04:36:54;10.67;;;5.57;;
16407;SDS011;8313;49.894;8.084;2022-12-07T04:41:47;6.97;;;4.20;;
16407;SDS011;8313;49.894;8.084;2022-12-07T04:44:13;7.80;;;3.70;;
16407;SDS011;8313;49.894;8.084;2022-12-07T04:46:39;8.97;;;4.97;;
16407;SDS011;8313;49.894;8.084;2022-12-07T04:49:06;7.80;;;4.50;;
16407;SDS011;8313;49.894;8.084;2022-12-07T04:51:32;9.13;;;4.67;;
16407;SDS011;8313;49.894;8.084;2022-12-07T04:53:57;5.73;;;3.83;;
16407;SDS011;8313;49.894;8.084;2022-12-07T04:56:23;9.30;;;4.63;;
16407;SDS011;8313;49.894;8.084;2022-12-07T04:58:50;10.23;;;4.60;;
16407;SDS011;8313;49.894;8.084;2022-12-07T05:01:17;10.47;;;5.00;;
16407;SDS011;8313;49.894;8.084;2022-12-07T05:03:43;9.20;;;5.17;;
16407;SDS011;8313;49.894;8.084;2022-12-07T05:06:09;8.80;;;5.00;;
16407;SDS011;8313;49.894;8.084;2022-12-07T05:08:36;8.67;;;4.73;;
16407;SDS011;8313;49.894;8.084;2022-12-07T05:11:02;7.97;;;5.03;;
16407;SDS011;8313;49.894;8.084;2022-12-07T05:13:30;10.03;;;4.97;;
16407;SDS011;8313;49.894;8.084;2022-12-07T05:15:56;9.90;;;5.27;;
16407;SDS011;8313;49.894;8.084;2022-12-07T05:18:21;10.33;;;5.30;;
16407;SDS011;8313;49.894;8.084;2022-12-07T05:20:47;8.30;;;3.73;;
16407;SDS011;8313;49.894;8.084;2022-12-07T05:23:13;7.87;;;4.37;;
16407;SDS011;8313;49.894;8.084;2022-12-07T05:25:39;11.30;;;5.30;;
16407;SDS011;8313;49.894;8.084;2022-12-07T05:28:05;7.37;;;5.13;;
16407;SDS011;8313;49.894;8.084;2022-12-07T05:30:31;11.20;;;5.33;;
16407;SDS011;8313;49.894;8.084;2022-12-07T05:32:57;12.73;;;6.43;;
16407;SDS011;8313;49.894;8.084;2022-12-07T05:35:23;11.63;;;6.70;;
16407;SDS011;8313;49.894;8.084;2022-12-07T05:37:49;13.27;;;5.77;;
16407;SDS011;8313;49.894;8.084;2022-12-07T05:40:15;10.77;;;5.70;;
16407;SDS011;8313;49.894;8.084;2022-12-07T05:42:41;8.30;;;5.00;;
16407;SDS011;8313;49.894;8.084;2022-12-07T05:45:08;9.20;;;4.80;;
16407;SDS011;8313;49.894;8.084;2022-12-07T05:47:34;9.63;;;5.77;;
16407;SDS011;8313;49.894;8.084;2022-12-07T05:50:00;12.00;;;5.97;;
16407;SDS011;8313;49.894;8.084;2022-12-07T05:52:26;11.97;;;5.73;;
16407;SDS011;8313;49.894;8.084;2022-12-07T05:54:52;10.80;;;5.73;;
16407;SDS011;8313;49.894;8.084;2022-12-07T05:57:17;7.67;;;5.13;;
16407;SDS011;8313;49.894;8.084;2022-12-07T05:59:43;15.13;;;7.13;;
16407;SDS011;8313;49.894;8.084;2022-12-07T06:02:11;10.07;;;5.80;;
16407;SDS011;8313;49.894;8.084;2022-12-07T06:04:39;14.63;;;6.67;;
16407;SDS011;8313;49.894;8.084;2022-12-07T06:07:06;11.60;;;5.90;;
16407;SDS011;8313;49.894;8.084;2022-12-07T06:09:32;12.57;;;5.73;;
16407;SDS011;8313;49.894;8.084;2022-12-07T06:11:59;9.37;;;5.57;;
16407;SDS011;8313;49.894;8.084;2022-12-07T06:14:43;8.47;;;4.90;;
16407;SDS011;8313;49.894;8.084;2022-12-07T06:17:09;6.97;;;4.17;;
16407;SDS011;8313;49.894;8.084;2022-12-07T06:19:36;12.30;;;6.00;;
16407;SDS011;8313;49.894;8.084;2022-12-07T06:22:02;12.80;;;6.83;;
16407;SDS011;8313;49.894;8.084;2022-12-07T06:24:29;12.90;;;6.20;;
16407;SDS011;8313;49.894;8.084;2022-12-07T06:26:56;9.83;;;5.00;;
16407;SDS011;8313;49.894;8.084;2022-12-07T06:29:22;11.53;;;6.23;;
16407;SDS011;8313;49.894;8.084;2022-12-07T06:31:48;10.13;;;5.83;;
16407;SDS011;8313;49.894;8.084;2022-12-07T06:34:15;10.80;;;5.23;;
16407;SDS011;8313;49.894;8.084;2022-12-07T06:36:43;8.03;;;5.00;;
16407;SDS011;8313;49.894;8.084;2022-12-07T06:39:09;9.10;;;5.30;;
16407;SDS011;8313;49.894;8.084;2022-12-07T06:41:36;10.77;;;6.30;;
16407;SDS011;8313;49.894;8.084;2022-12-07T06:44:02;12.63;;;6.13;;
16407;SDS011;8313;49.894;8.084;2022-12-07T06:46:29;9.53;;;5.73;;
16407;SDS011;8313;49.894;8.084;2022-12-07T06:48:54;12.10;;;5.67;;
16407;SDS011;8313;49.894;8.084;2022-12-07T06:51:20;12.60;;;6.80;;
16407;SDS011;8313;49.894;8.084;2022-12-07T06:53:46;9.23;;;5.63;;
16407;SDS011;8313;49.894;8.084;2022-12-07T06:56:12;12.87;;;7.13;;
16407;SDS011;8313;49.894;8.084;2022-12-07T06:58:38;10.77;;;5.67;;
16407;SDS011;8313;49.894;8.084;2022-12-07T07:01:11;10.73;;;5.87;;
16407;SDS011;8313;49.894;8.084;2022-12-07T07:03:39;15.40;;;7.27;;
16407;SDS011;8313;49.894;8.084;2022-12-07T07:06:05;11.33;;;6.30;;
16407;SDS011;8313;49.894;8.084;2022-12-07T07:08:32;10.23;;;6.23;;
16407;SDS011;8313;49.894;8.084;2022-12-07T07:11:02;14.80;;;6.07;;
16407;SDS011;8313;49.894;8.084;2022-12-07T07:13:28;8.50;;;5.63;;
16407;SDS011;8313;49.894;8.084;2022-12-07T07:15:54;14.60;;;5.90;;
16407;SDS011;8313;49.894;8.084;2022-12-07T07:18:20;10.43;;;6.20;;
16407;SDS011;8313;49.894;8.084;2022-12-07T07:20:46;12.00;;;6.10;;
16407;SDS011;8313;49.894;8.084;2022-12-07T07:23:11;14.63;;;6.47;;
16407;SDS011;8313;49.894;8.084;2022-12-07T07:25:37;10.23;;;5.90;;
16407;SDS011;8313;49.894;8.084;2022-12-07T07:28:03;10.83;;;7.27;;
16407;SDS011;8313;49.894;8.084;2022-12-07T07:30:29;8.63;;;5.13;;
16407;SDS011;8313;49.894;8.084;2022-12-07T07:32:58;12.27;;;5.97;;
16407;SDS011;8313;49.894;8.084;2022-12-07T07:35:25;8.97;;;5.50;;
16407;SDS011;8313;49.894;8.084;2022-12-07T07:37:51;10.77;;;6.17;;
16407;SDS011;8313;49.894;8.084;2022-12-07T07:40:17;13.63;;;6.00;;
16407;SDS011;8313;49.894;8.084;2022-12-07T07:42:43;13.93;;;6.83;;
16407;SDS011;8313;49.894;8.084;2022-12-07T07:45:09;10.27;;;5.67;;
16407;SDS011;8313;49.894;8.084;2022-12-07T07:47:35;13.63;;;6.60;;
16407;SDS011;8313;49.894;8.084;2022-12-07T07:50:01;10.73;;;6.13;;
16407;SDS011;8313;49.894;8.084;2022-12-07T07:52:26;13.27;;;5.60;;
16407;SDS011;8313;49.894;8.084;2022-12-07T07:54:52;9.87;;;6.07;;
16407;SDS011;8313;49.894;8.084;2022-12-07T07:57:18;5.67;;;4.47;;
16407;SDS011;8313;49.894;8.084;2022-12-07T07:59:44;11.90;;;6.33;;
16407;SDS011;8313;49.894;8.084;2022-12-07T08:02:16;8.80;;;5.80;;
16407;SDS011;8313;49.894;8.084;2022-12-07T08:04:44;13.67;;;8.07;;
16407;SDS011;8313;49.894;8.084;2022-12-07T08:07:10;9.10;;;5.47;;
16407;SDS011;8313;49.894;8.084;2022-12-07T08:09:37;10.40;;;5.97;;
16407;SDS011;8313;49.894;8.084;2022-12-07T08:12:03;11.33;;;5.77;;
16407;SDS011;8313;49.894;8.084;2022-12-07T08:14:29;12.33;;;5.93;;
16407;SDS011;8313;49.894;8.084;2022-12-07T08:16:55;8.60;;;5.70;;
16407;SDS011;8313;49.894;8.084;2022-12-07T08:19:21;9.37;;;5.20;;
16407;SDS011;8313;49.894;8.084;2022-12-07T08:21:47;10.17;;;5.83;;
16407;SDS011;8313;49.894;8.084;2022-12-07T08:24:13;10.17;;;5.17;;
16407;SDS011;8313;49.894;8.084;2022-12-07T08:26:39;10.57;;;5.03;;
16407;SDS011;8313;49.894;8.084;2022-12-07T08:29:05;15.60;;;7.43;;
16407;SDS011;8313;49.894;8.084;2022-12-07T08:31:30;11.00;;;5.87;;
16407;SDS011;8313;49.894;8.084;2022-12-07T08:33:56;12.20;;;5.73;;
16407;SDS011;8313;49.894;8.084;2022-12-07T08:36:22;13.77;;;7.77;;
16407;SDS011;8313;49.894;8.084;2022-12-07T08:38:48;8.47;;;5.67;;
16407;SDS011;8313;49.894;8.084;2022-12-07T08:41:14;17.20;;;6.70;;
16407;SDS011;8313;49.894;8.084;2022-12-07T08:43:40;10.10;;;6.13;;
16407;SDS011;8313;49.894;8.084;2022-12-07T08:48:36;10.63;;;6.30;;
16407;SDS011;8313;49.894;8.084;2022-12-07T08:51:08;14.03;;;7.47;;
16407;SDS011;8313;49.894;8.084;2022-12-07T08:53:34;16.00;;;7.07;;
16407;SDS011;8313;49.894;8.084;2022-12-07T08:56:02;9.77;;;6.27;;
16407;SDS011;8313;49.894;8.084;2022-12-07T08:58:28;14.33;;;6.57;;
16407;SDS011;8313;49.894;8.084;2022-12-07T09:00:54;9.93;;;5.70;;
16407;SDS011;8313;49.894;8.084;2022-12-07T09:03:20;20.87;;;6.80;;
16407;SDS011;8313;49.894;8.084;2022-12-07T09:05:45;13.30;;;6.73;;
16407;SDS011;8313;49.894;8.084;2022-12-07T09:08:12;10.63;;;6.20;;
16407;SDS011;8313;49.894;8.084;2022-12-07T09:10:38;9.10;;;5.50;;
16407;SDS011;8313;49.894;8.084;2022-12-07T09:13:03;12.50;;;5.83;;
16407;SDS011;8313;49.894;8.084;2022-12-07T09:15:29;10.83;;;6.27;;
16407;SDS011;8313;49.894;8.084;2022-12-07T09:17:55;13.17;;;6.77;;
16407;SDS011;8313;49.894;8.084;2022-12-07T09:20:21;9.63;;;5.43;;
16407;SDS011;8313;49.894;8.084;2022-12-07T09:22:47;8.40;;;5.43;;
16407;SDS011;8313;49.894;8.084;2022-12-07T09:25:12;11.37;;;6.20;;
16407;SDS011;8313;49.894;8.084;2022-12-07T09:27:38;9.07;;;6.03;;
16407;SDS011;8313;49.894;8.084;2022-12-07T09:30:04;7.60;;;4.97;;
16407;SDS011;8313;49.894;8.084;2022-12-07T09:32:31;8.47;;;5.40;;
16407;SDS011;8313;49.894;8.084;2022-12-07T09:34:56;10.20;;;5.93;;
16407;SDS011;8313;49.894;8.084;2022-12-07T09:37:22;8.40;;;4.87;;
16407;SDS011;8313;49.894;8.084;2022-12-07T09:39:48;11.93;;;6.40;;
16407;SDS011;8313;49.894;8.084;2022-12-07T09:42:30;7.67;;;4.60;;
16407;SDS011;8313;49.894;8.084;2022-12-07T09:44:59;11.07;;;5.53;;
16407;SDS011;8313;49.894;8.084;2022-12-07T09:47:27;10.13;;;5.57;;
16407;SDS011;8313;49.894;8.084;2022-12-07T09:49:55;7.63;;;4.20;;
16407;SDS011;8313;49.894;8.084;2022-12-07T09:52:32;11.20;;;7.70;;
16407;SDS011;8313;49.894;8.084;2022-12-07T09:54:58;19.17;;;11.77;;
16407;SDS011;8313;49.894;8.084;2022-12-07T09:57:33;22.40;;;10.97;;
16407;SDS011;8313;49.894;8.084;2022-12-07T10:00:03;26.97;;;13.27;;
16407;SDS011;8313;49.894;8.084;2022-12-07T10:02:36;22.23;;;11.47;;
16407;SDS011;8313;49.894;8.084;2022-12-07T10:05:07;14.53;;;6.63;;
16407;SDS011;8313;49.894;8.084;2022-12-07T10:07:38;16.77;;;8.10;;
16407;SDS011;8313;49.894;8.084;2022-12-07T10:10:04;15.23;;;7.33;;
16407;SDS011;8313;49.894;8.084;2022-12-07T10:12:58;9.00;;;6.00;;
16407;SDS011;8313;49.894;8.084;2022-12-07T10:15:40;15.23;;;5.57;;
16407;SDS011;8313;49.894;8.084;2022-12-07T10:18:20;16.20;;;6.13;;
16407;SDS011;8313;49.894;8.084;2022-12-07T10:21:27;7.60;;;5.43;;
16407;SDS011;8313;49.894;8.084;2022-12-07T10:29:17;24.17;;;14.03;;
16407;SDS011;8313;49.894;8.084;2022-12-07T10:31:58;22.50;;;10.80;;
16407;SDS011;8313;49.894;8.084;2022-12-07T10:34:30;72.77;;;24.80;;
16407;SDS011;8313;49.894;8.084;2022-12-07T10:45:06;8.93;;;5.30;;
16407;SDS011;8313;49.894;8.084;2022-12-07T11:37:35;5.40;;;3.03;;
16407;SDS011;8313;49.894;8.084;2022-12-07T11:42:41;4.67;;;2.17;;
16407;SDS011;8313;49.894;8.084;2022-12-07T11:47:48;3.93;;;2.70;;
16407;SDS011;8313;49.894;8.084;2022-12-07T11:50:40;2.63;;;2.03;;
16407;SDS011;8313;49.894;8.084;2022-12-07T11:53:19;5.87;;;2.97;;
16407;SDS011;8313;49.894;8.084;2022-12-07T12:01:26;2.10;;;1.90;;
16407;SDS011;8313;49.894;8.084;2022-12-07T12:03:52;6.30;;;2.40;;
16407;SDS011;8313;49.894;8.084;2022-12-07T12:06:23;3.00;;;1.63;;
16407;SDS011;8313;49.894;8.084;2022-12-07T12:20:35;2.93;;;2.30;;
16407;SDS011;8313;49.894;8.084;2022-12-07T12:23:06;2.53;;;1.97;;
16407;SDS011;8313;49.894;8.084;2022-12-07T12:28:22;3.43;;;2.00;;
16407;SDS011;8313;49.894;8.084;2022-12-07T12:31:05;4.23;;;2.33;;
16407;SDS011;8313;49.894;8.084;2022-12-07T12:33:38;3.30;;;2.23;;
16407;SDS011;8313;49.894;8.084;2022-12-07T12:47:04;2.00;;;1.80;;
16407;SDS011;8313;49.894;8.084;2022-12-07T12:50:11;4.60;;;1.87;;
16407;SDS011;8313;49.894;8.084;2022-12-07T12:52:52;3.30;;;1.77;;
16407;SDS011;8313;49.894;8.084;2022-12-07T12:58:21;5.73;;;2.40;;
16407;SDS011;8313;49.894;8.084;2022-12-07T13:04:02;5.60;;;2.40;;
16407;SDS011;8313;49.894;8.084;2022-12-07T13:06:39;4.10;;;1.90;;
16407;SDS011;8313;49.894;8.084;2022-12-07T13:09:15;3.70;;;2.03;;
16407;SDS011;8313;49.894;8.084;2022-12-07T13:11:58;2.20;;;1.67;;
16407;SDS011;8313;49.894;8.084;2022-12-07T13:17:53;1.93;;;1.73;;
16407;SDS011;8313;49.894;8.084;2022-12-07T13:20:01;6.53;;;3.47;;
16407;SDS011;8313;49.894;8.084;2022-12-07T13:24:56;9.63;;;3.30;;
16407;SDS011;8313;49.894;8.084;2022-12-07T13:27:32;4.30;;;2.20;;
16407;SDS011;8313;49.894;8.084;2022-12-07T13:29:59;3.23;;;2.03;;
16407;SDS011;8313;49.894;8.084;2022-12-07T13:32:27;4.10;;;2.60;;
16407;SDS011;8313;49.894;8.084;2022-12-07T13:34:54;2.33;;;2.10;;
16407;SDS011;8313;49.894;8.084;2022-12-07T13:37:27;4.93;;;2.60;;
16407;SDS011;8313;49.894;8.084;2022-12-07T13:42:33;5.20;;;2.10;;
16407;SDS011;8313;49.894;8.084;2022-12-07T13:45:01;4.30;;;1.67;;
16407;SDS011;8313;49.894;8.084;2022-12-07T13:48:13;1.63;;;1.50;;
16407;SDS011;8313;49.894;8.084;2022-12-07T13:50:48;1.60;;;1.50;;
16407;SDS011;8313;49.894;8.084;2022-12-07T13:53:18;2.80;;;1.70;;
16407;SDS011;8313;49.894;8.084;2022-12-07T13:55:45;2.27;;;2.07;;
16407;SDS011;8313;49.894;8.084;2022-12-07T13:58:12;12.30;;;6.27;;
16407;SDS011;8313;49.894;8.084;2022-12-07T14:00:39;8.80;;;5.80;;
16407;SDS011;8313;49.894;8.084;2022-12-07T14:05:38;23.13;;;12.20;;
16407;SDS011;8313;49.894;8.084;2022-12-07T14:16:27;3.70;;;2.60;;
16407;SDS011;8313;49.894;8.084;2022-12-07T14:18:55;2.53;;;2.33;;
16407;SDS011;8313;49.894;8.084;2022-12-07T14:21:23;2.50;;;2.20;;
16407;SDS011;8313;49.894;8.084;2022-12-07T14:26:43;2.00;;;1.80;;
16407;SDS011;8313;49.894;8.084;2022-12-07T14:29:30;2.07;;;1.87;;
16407;SDS011;8313;49.894;8.084;2022-12-07T14:32:13;2.50;;;2.03;;
16407;SDS011;8313;49.894;8.084;2022-12-07T14:34:41;3.40;;;2.30;;
16407;SDS011;8313;49.894;8.084;2022-12-07T14:37:17;2.67;;;1.77;;
16407;SDS011;8313;49.894;8.084;2022-12-07T14:39:43;3.63;;;1.60;;
16407;SDS011;8313;49.894;8.084;2022-12-07T14:42:08;2.70;;;2.03;;
16407;SDS011;8313;49.894;8.084;2022-12-07T14:44:34;3.13;;;2.60;;
16407;SDS011;8313;49.894;8.084;2022-12-07T14:46:59;2.50;;;2.30;;
16407;SDS011;8313;49.894;8.084;2022-12-07T14:49:25;5.00;;;2.33;;
16407;SDS011;8313;49.894;8.084;2022-12-07T14:51:51;7.87;;;4.60;;
16407;SDS011;8313;49.894;8.084;2022-12-07T14:54:18;7.80;;;4.60;;
16407;SDS011;8313;49.894;8.084;2022-12-07T14:56:46;5.17;;;3.10;;
16407;SDS011;8313;49.894;8.084;2022-12-07T14:59:15;6.27;;;3.23;;
16407;SDS011;8313;49.894;8.084;2022-12-07T15:01:42;16.60;;;9.30;;
16407;SDS011;8313;49.894;8.084;2022-12-07T15:04:08;35.03;;;18.30;;
16407;SDS011;8313;49.894;8.084;2022-12-07T15:06:33;22.67;;;13.30;;
16407;SDS011;8313;49.894;8.084;2022-12-07T15:08:59;12.90;;;8.43;;
16407;SDS011;8313;49.894;8.084;2022-12-07T15:11:25;5.73;;;4.73;;
16407;SDS011;8313;49.894;8.084;2022-12-07T15:13:51;6.40;;;4.73;;
16407;SDS011;8313;49.894;8.084;2022-12-07T15:16:37;6.20;;;4.40;;
16407;SDS011;8313;49.894;8.084;2022-12-07T15:19:10;5.03;;;3.87;;
16407;SDS011;8313;49.894;8.084;2022-12-07T15:21:39;4.90;;;2.83;;
16407;SDS011;8313;49.894;8.084;2022-12-07T15:24:05;5.70;;;3.17;;
16407;SDS011;8313;49.894;8.084;2022-12-07T15:26:31;4.60;;;2.70;;
16407;SDS011;8313;49.894;8.084;2022-12-07T15:28:57;2.10;;;1.90;;
16407;SDS011;8313;49.894;8.084;2022-12-07T15:31:22;2.33;;;1.73;;
16407;SDS011;8313;49.894;8.084;2022-12-07T15:33:48;2.33;;;2.00;;
16407;SDS011;8313;49.894;8.084;2022-12-07T15:36:21;2.27;;;1.90;;
16407;SDS011;8313;49.894;8.084;2022-12-07T15:38:49;3.33;;;2.47;;
16407;SDS011;8313;49.894;8.084;2022-12-07T15:41:14;3.93;;;2.30;;
16407;SDS011;8313;49.894;8.084;2022-12-07T15:43:40;6.30;;;3.90;;
16407;SDS011;8313;49.894;8.084;2022-12-07T15:46:38;5.00;;;3.17;;
16407;SDS011;8313;49.894;8.084;2022-12-07T15:49:15;4.70;;;3.50;;
16407;SDS011;8313;49.894;8.084;2022-12-07T15:51:43;6.57;;;3.33;;
16407;SDS011;8313;49.894;8.084;2022-12-07T15:54:11;5.00;;;3.47;;
16407;SDS011;8313;49.894;8.084;2022-12-07T15:56:40;4.97;;;2.80;;
16407;SDS011;8313;49.894;8.084;2022-12-07T15:59:06;4.93;;;3.30;;
16407;SDS011;8313;49.894;8.084;2022-12-07T16:01:32;6.30;;;4.10;;
16407;SDS011;8313;49.894;8.084;2022-12-07T16:03:57;4.70;;;2.87;;
16407;SDS011;8313;49.894;8.084;2022-12-07T16:06:24;5.07;;;3.80;;
16407;SDS011;8313;49.894;8.084;2022-12-07T16:08:50;4.97;;;2.70;;
16407;SDS011;8313;49.894;8.084;2022-12-07T16:11:16;4.17;;;2.43;;
16407;SDS011;8313;49.894;8.084;2022-12-07T16:13:41;3.50;;;2.93;;
16407;SDS011;8313;49.894;8.084;2022-12-07T16:16:10;5.20;;;3.27;;
16407;SDS011;8313;49.894;8.084;2022-12-07T16:18:38;4.80;;;3.87;;
16407;SDS011;8313;49.894;8.084;2022-12-07T16:21:04;6.27;;;4.50;;
16407;SDS011;8313;49.894;8.084;2022-12-07T16:23:30;6.80;;;4.30;;
16407;SDS011;8313;49.894;8.084;2022-12-07T16:26:03;9.97;;;5.90;;
16407;SDS011;8313;49.894;8.084;2022-12-07T16:28:32;9.90;;;5.70;;
16407;SDS011;8313;49.894;8.084;2022-12-07T16:31:02;7.67;;;5.20;;
16407;SDS011;8313;49.894;8.084;2022-12-07T16:33:29;6.90;;;4.97;;
16407;SDS011;8313;49.894;8.084;2022-12-07T16:35:55;8.43;;;5.50;;
16407;SDS011;8313;49.894;8.084;2022-12-07T16:38:20;4.13;;;3.57;;
16407;SDS011;8313;49.894;8.084;2022-12-07T16:40:46;5.67;;;3.80;;
16407;SDS011;8313;49.894;8.084;2022-12-07T16:43:13;3.70;;;3.40;;
16407;SDS011;8313;49.894;8.084;2022-12-07T16:45:38;5.30;;;3.73;;
16407;SDS011;8313;49.894;8.084;2022-12-07T16:48:04;6.97;;;3.03;;
16407;SDS011;8313;49.894;8.084;2022-12-07T16:50:30;2.53;;;2.33;;
16407;SDS011;8313;49.894;8.084;2022-12-07T16:52:56;4.93;;;2.93;;
16407;SDS011;8313;49.894;8.084;2022-12-07T16:55:21;5.53;;;3.30;;
16407;SDS011;8313;49.894;8.084;2022-12-07T16:57:47;5.87;;;3.27;;
16407;SDS011;8313;49.894;8.084;2022-12-07T17:00:13;4.50;;;2.70;;
16407;SDS011;8313;49.894;8.084;2022-12-07T17:02:39;6.60;;;4.90;;
16407;SDS011;8313;49.894;8.084;2022-12-07T17:05:04;3.97;;;2.80;;
16407;SDS011;8313;49.894;8.084;2022-12-07T17:07:30;4.97;;;2.97;;
16407;SDS011;8313;49.894;8.084;2022-12-07T17:09:56;10.87;;;3.60;;
16407;SDS011;8313;49.894;8.084;2022-12-07T17:12:21;8.37;;;4.33;;
16407;SDS011;8313;49.894;8.084;2022-12-07T17:14:48;5.20;;;3.30;;
16407;SDS011;8313;49.894;8.084;2022-12-07T17:17:54;5.47;;;3.20;;
16407;SDS011;8313;49.894;8.084;2022-12-07T17:20:22;8.50;;;3.27;;
16407;SDS011;8313;49.894;8.084;2022-12-07T17:22:50;8.03;;;4.13;;
16407;SDS011;8313;49.894;8.084;2022-12-07T17:25:15;10.30;;;4.60;;
16407;SDS011;8313;49.894;8.084;2022-12-07T17:27:42;8.30;;;3.97;;
16407;SDS011;8313;49.894;8.084;2022-12-07T17:30:08;12.57;;;4.13;;
16407;SDS011;8313;49.894;8.084;2022-12-07T17:32:34;10.33;;;4.50;;
16407;SDS011;8313;49.894;8.084;2022-12-07T17:34:59;11.00;;;5.50;;
16407;SDS011;8313;49.894;8.084;2022-12-07T17:37:26;11.50;;;4.53;;
16407;SDS011;8313;49.894;8.084;2022-12-07T17:39:52;10.57;;;4.30;;
16407;SDS011;8313;49.894;8.084;2022-12-07T17:42:21;10.00;;;4.60;;
16407;SDS011;8313;49.894;8.084;2022-12-07T17:45:05;18.07;;;5.67;;